• Join FlightAware (Why Join?)
  • Login
  • US Flag 
03:28PM EDT


 

Airport Tracker/Info


-or-


 

Live Flight TrackerFlight Track Log ✈ N672DS ✈ 01-Jun-2013 ✈ KGAI

Flight Track Log - Related Links

Times and Time Zones

All times are in EDT time to prevent confusion due to time zone crossing. See the N672DS flight status page for this flight to view local times or setup timezone preferences in your user account.

Time Position Orientation Groundspeed Altitude Reporting Facility
EDT Latitude Longitude Course Direction KTS MPH feet Rate Location/Type
10:30AM 39.2000 -77.1833 21° North 112 129 2,000  Level Potomac TRACON
10:31AM 39.2333 -77.1667 21° North 111 128 2,600 480 Climbing Potomac TRACON
10:32AM 39.2500 -77.1500 38° Northeast 114 131 3,000 180 Climbing Potomac TRACON
10:33AM 39.2833 -77.1167 38° Northeast 130 150 3,100  Climbing Potomac TRACON
10:34AM 39.3167 -77.1000 21° North 130 150 3,000 -60 Descending Potomac TRACON
10:35AM 39.3500 -77.0833 21° North 131 151 3,000  Level Potomac TRACON
10:37AM 39.3442 -77.0819 169° South  Level FlightAware Approximate
10:44AM 39.3110 -77.0736 169° South  Level FlightAware Approximate
10:45AM 39.3063 -77.0724 169° South  Level FlightAware Approximate
10:46AM 39.3015 -77.0712 169° South  Level FlightAware Approximate
10:47AM 39.2968 -77.0700 169° South  Level FlightAware Approximate
10:48AM 39.2926 -77.0732 207° Southwest  Level Estimated
10:49AM 39.2881 -77.0752 199° South  Level FlightAware Approximate
10:50AM 39.2835 -77.0773 199° South  Level FlightAware Approximate
10:51AM 39.2790 -77.0793 199° South  Level FlightAware Approximate
10:52AM 39.2744 -77.0814 199° South  Level FlightAware Approximate
10:53AM 39.2699 -77.0835 199° South  Level FlightAware Approximate
10:54AM 39.2653 -77.0855 199° South  Level FlightAware Approximate
10:55AM 39.2608 -77.0876 199° South  Level FlightAware Approximate
10:56AM 39.2562 -77.0896 199° South  Level FlightAware Approximate
10:57AM 39.2517 -77.0917 199° South  Level FlightAware Approximate
10:58AM 39.2471 -77.0938 199° South  Level FlightAware Approximate
10:59AM 39.2426 -77.0958 199° South  Level FlightAware Approximate
11:00AM 39.2387 -77.0995 201° Southwest  Level Estimated
11:01AM 39.2341 -77.1015 199° South  Level FlightAware Approximate
11:02AM 39.2296 -77.1036 199° South  Level FlightAware Approximate
11:03AM 39.2250 -77.1056 199° South  Level FlightAware Approximate
11:04AM 39.2204 -77.1076 199° South  Level FlightAware Approximate
11:05AM 39.2159 -77.1096 199° South  Level FlightAware Approximate
11:06AM 39.2113 -77.1116 199° South  Level FlightAware Approximate
11:07AM 39.2079 -77.1160 218° Southwest  Level Estimated
11:08AM 39.2038 -77.1193 213° Southwest  Level FlightAware Approximate
11:09AM 39.1998 -77.1227 213° Southwest  Level FlightAware Approximate
11:10AM 39.1957 -77.1261 213° Southwest  Level FlightAware Approximate
11:11AM 39.1916 -77.1294 213° Southwest  Level FlightAware Approximate
11:12AM 39.1876 -77.1328 213° Southwest  Level FlightAware Approximate
11:13AM 39.1835 -77.1361 213° Southwest  Level FlightAware Approximate
11:14AM 39.1795 -77.1395 213° Southwest  Level FlightAware Approximate
11:15AM 39.1754 -77.1428 213° Southwest  Level FlightAware Approximate
11:16AM 39.1667 -77.1500 218° Southwest  Level FlightAware Approximate
11:17AM 39.1673 -77.1562 218° Southwest  Level Estimated
11:18AM 39.1667 -77.1500 218° Southwest  Level FlightAware Approximate
11:19AM 39.1673 -77.1562 218° Southwest  Level Estimated
11:20AM 39.1667 -77.1500 218° Southwest  Level FlightAware Approximate
11:20AM 39.4000 -77.0667 218° Southwest 128 147 3,000  Level Potomac TRACON
11:21AM 39.1673 -77.1562 218° Southwest  Level Estimated
11:21AM 39.3833 -77.1000 237° Southwest 129 148 3,000  Level Potomac TRACON
11:22AM 39.1667 -77.1500 218° Southwest  Level FlightAware Approximate
11:22AM 39.3333 -77.1000 180° South 131 151 3,000  Level Potomac TRACON
11:23AM 39.1673 -77.1562 218° Southwest  Level Estimated
11:23AM 39.3000 -77.1167 201° Southwest 127 146 3,000  Level Potomac TRACON
11:24AM 39.1667 -77.1500 218° Southwest  Level FlightAware Approximate
11:24AM 39.2667 -77.1333 201° Southwest 135 155 2,800  Level Potomac TRACON
11:25AM 39.2333 -77.1333 180° South 142 163 2,100 -720 Descending Potomac TRACON
11:26AM 39.2000 -77.1500 201° Southwest 119 137 1,400 -420 Descending Potomac TRACON
11:27AM 39.1667 -77.1333 159° South 107 123 1,300 -120 Descending Potomac TRACON
11:30AM 39.1667 -77.1435 270° West  Level FlightAware Approximate